Terminal Aerodrome Forecast
Issued by NWS

Home | Current Version | Previous Version | Text Only | Print | Product List | Glossary On
Versions: 1 2 3 4 5 6 7 8 9 10 11 12
000
FTUS42 KTBW 301125
TAFPIE
TAF
KPIE 301125Z 3012/0112 11005KT P6SM SCT250
     FM301400 06005KT P6SM SCT200
     FM301900 28007KT P6SM FEW040 SCT100
     FM010100 33006KT P6SM FEW035 SCT100
     FM010300 VRB04KT P6SM SCT050
     FM010500 10005KT P6SM FEW200=

USA.gov is the U.S. government's official web portal to all federal, state and local government web resources and services.